sensor_id;sensor_type;location;lat;lon;timestamp;P1;durP1;ratioP1;P2;durP2;ratioP2
65033;SDS011;51601;51.356;12.458;2022-10-16T00:02:20;6.00;;;2.10;;
65033;SDS011;51601;51.356;12.458;2022-10-16T00:06:34;6.72;;;2.10;;
65033;SDS011;51601;51.356;12.458;2022-10-16T00:10:49;5.32;;;1.88;;
65033;SDS011;51601;51.356;12.458;2022-10-16T00:15:04;4.40;;;1.60;;
65033;SDS011;51601;51.356;12.458;2022-10-16T00:19:19;5.13;;;1.80;;
65033;SDS011;51601;51.356;12.458;2022-10-16T00:23:33;4.38;;;1.55;;
65033;SDS011;51601;51.356;12.458;2022-10-16T00:27:49;5.03;;;1.93;;
65033;SDS011;51601;51.356;12.458;2022-10-16T00:32:03;6.25;;;1.90;;
65033;SDS011;51601;51.356;12.458;2022-10-16T00:36:17;3.97;;;1.50;;
65033;SDS011;51601;51.356;12.458;2022-10-16T00:40:33;6.27;;;1.80;;
65033;SDS011;51601;51.356;12.458;2022-10-16T00:44:49;3.65;;;1.58;;
65033;SDS011;51601;51.356;12.458;2022-10-16T00:49:06;3.95;;;1.58;;
65033;SDS011;51601;51.356;12.458;2022-10-16T00:53:22;3.15;;;1.30;;
65033;SDS011;51601;51.356;12.458;2022-10-16T00:57:38;3.53;;;1.40;;
65033;SDS011;51601;51.356;12.458;2022-10-16T01:01:54;4.88;;;1.52;;
65033;SDS011;51601;51.356;12.458;2022-10-16T01:06:22;4.05;;;1.20;;
65033;SDS011;51601;51.356;12.458;2022-10-16T01:10:39;3.97;;;1.33;;
65033;SDS011;51601;51.356;12.458;2022-10-16T01:14:59;4.68;;;1.30;;
65033;SDS011;51601;51.356;12.458;2022-10-16T01:19:25;5.22;;;1.58;;
65033;SDS011;51601;51.356;12.458;2022-10-16T01:23:49;4.87;;;1.80;;
65033;SDS011;51601;51.356;12.458;2022-10-16T01:28:14;5.30;;;1.83;;
65033;SDS011;51601;51.356;12.458;2022-10-16T01:33:10;5.00;;;1.70;;
65033;SDS011;51601;51.356;12.458;2022-10-16T01:37:51;4.20;;;1.40;;
65033;SDS011;51601;51.356;12.458;2022-10-16T01:42:13;5.47;;;1.50;;
65033;SDS011;51601;51.356;12.458;2022-10-16T01:46:31;3.83;;;1.67;;
65033;SDS011;51601;51.356;12.458;2022-10-16T01:50:49;6.78;;;1.85;;
65033;SDS011;51601;51.356;12.458;2022-10-16T01:55:07;5.50;;;1.93;;
65033;SDS011;51601;51.356;12.458;2022-10-16T01:59:23;5.20;;;1.50;;
65033;SDS011;51601;51.356;12.458;2022-10-16T02:03:41;5.45;;;1.80;;
65033;SDS011;51601;51.356;12.458;2022-10-16T02:07:57;4.50;;;1.80;;
65033;SDS011;51601;51.356;12.458;2022-10-16T02:12:19;4.15;;;1.63;;
65033;SDS011;51601;51.356;12.458;2022-10-16T02:16:39;3.85;;;1.50;;
65033;SDS011;51601;51.356;12.458;2022-10-16T02:20:59;3.75;;;1.52;;
65033;SDS011;51601;51.356;12.458;2022-10-16T02:25:17;5.63;;;1.60;;
65033;SDS011;51601;51.356;12.458;2022-10-16T02:29:38;3.70;;;1.40;;
65033;SDS011;51601;51.356;12.458;2022-10-16T02:33:57;3.97;;;1.00;;
65033;SDS011;51601;51.356;12.458;2022-10-16T02:38:15;4.97;;;1.43;;
65033;SDS011;51601;51.356;12.458;2022-10-16T02:42:32;3.72;;;1.40;;
65033;SDS011;51601;51.356;12.458;2022-10-16T02:46:47;5.07;;;1.50;;
65033;SDS011;51601;51.356;12.458;2022-10-16T02:51:01;3.77;;;1.43;;
65033;SDS011;51601;51.356;12.458;2022-10-16T02:55:16;3.35;;;1.30;;
65033;SDS011;51601;51.356;12.458;2022-10-16T02:59:30;3.55;;;1.40;;
65033;SDS011;51601;51.356;12.458;2022-10-16T03:03:44;4.03;;;1.50;;
65033;SDS011;51601;51.356;12.458;2022-10-16T03:07:57;4.03;;;1.50;;
65033;SDS011;51601;51.356;12.458;2022-10-16T03:12:13;5.05;;;1.58;;
65033;SDS011;51601;51.356;12.458;2022-10-16T03:16:27;4.13;;;1.50;;
65033;SDS011;51601;51.356;12.458;2022-10-16T03:20:42;5.53;;;1.60;;
65033;SDS011;51601;51.356;12.458;2022-10-16T03:24:56;5.10;;;1.60;;
65033;SDS011;51601;51.356;12.458;2022-10-16T03:29:11;2.97;;;1.20;;
65033;SDS011;51601;51.356;12.458;2022-10-16T03:33:24;3.90;;;1.57;;
65033;SDS011;51601;51.356;12.458;2022-10-16T03:37:38;4.75;;;1.60;;
65033;SDS011;51601;51.356;12.458;2022-10-16T03:41:52;3.65;;;1.40;;
65033;SDS011;51601;51.356;12.458;2022-10-16T03:46:07;3.33;;;1.40;;
65033;SDS011;51601;51.356;12.458;2022-10-16T03:50:21;4.53;;;1.43;;
65033;SDS011;51601;51.356;12.458;2022-10-16T03:54:34;4.05;;;1.55;;
65033;SDS011;51601;51.356;12.458;2022-10-16T03:58:48;4.75;;;1.40;;
65033;SDS011;51601;51.356;12.458;2022-10-16T04:03:03;5.27;;;1.60;;
65033;SDS011;51601;51.356;12.458;2022-10-16T04:07:17;3.50;;;1.50;;
65033;SDS011;51601;51.356;12.458;2022-10-16T04:11:31;4.55;;;1.45;;
65033;SDS011;51601;51.356;12.458;2022-10-16T04:15:44;5.53;;;1.77;;
65033;SDS011;51601;51.356;12.458;2022-10-16T04:20:00;6.55;;;1.80;;
65033;SDS011;51601;51.356;12.458;2022-10-16T04:24:14;6.10;;;1.80;;
65033;SDS011;51601;51.356;12.458;2022-10-16T04:28:28;6.35;;;1.90;;
65033;SDS011;51601;51.356;12.458;2022-10-16T04:32:42;4.43;;;1.80;;
65033;SDS011;51601;51.356;12.458;2022-10-16T04:36:57;4.63;;;1.80;;
65033;SDS011;51601;51.356;12.458;2022-10-16T04:41:11;7.13;;;2.00;;
65033;SDS011;51601;51.356;12.458;2022-10-16T04:45:25;5.87;;;1.93;;
65033;SDS011;51601;51.356;12.458;2022-10-16T04:49:39;4.88;;;1.73;;
65033;SDS011;51601;51.356;12.458;2022-10-16T04:53:54;5.05;;;1.80;;
65033;SDS011;51601;51.356;12.458;2022-10-16T04:58:08;4.67;;;1.87;;
65033;SDS011;51601;51.356;12.458;2022-10-16T05:02:21;5.95;;;1.92;;
65033;SDS011;51601;51.356;12.458;2022-10-16T05:06:35;4.85;;;2.17;;
65033;SDS011;51601;51.356;12.458;2022-10-16T05:10:51;5.03;;;2.00;;
65033;SDS011;51601;51.356;12.458;2022-10-16T05:15:05;4.70;;;1.90;;
65033;SDS011;51601;51.356;12.458;2022-10-16T05:19:20;5.35;;;2.00;;
65033;SDS011;51601;51.356;12.458;2022-10-16T05:23:39;4.53;;;1.90;;
65033;SDS011;51601;51.356;12.458;2022-10-16T05:27:54;5.73;;;2.13;;
65033;SDS011;51601;51.356;12.458;2022-10-16T05:32:08;6.10;;;2.00;;
65033;SDS011;51601;51.356;12.458;2022-10-16T05:36:21;5.07;;;2.30;;
65033;SDS011;51601;51.356;12.458;2022-10-16T05:40:35;6.07;;;2.03;;
65033;SDS011;51601;51.356;12.458;2022-10-16T05:44:50;7.25;;;2.33;;
65033;SDS011;51601;51.356;12.458;2022-10-16T05:49:04;5.80;;;2.10;;
65033;SDS011;51601;51.356;12.458;2022-10-16T05:53:17;5.10;;;2.20;;
65033;SDS011;51601;51.356;12.458;2022-10-16T05:57:37;4.70;;;1.80;;
65033;SDS011;51601;51.356;12.458;2022-10-16T06:01:52;8.32;;;2.20;;
65033;SDS011;51601;51.356;12.458;2022-10-16T06:06:09;5.47;;;2.38;;
65033;SDS011;51601;51.356;12.458;2022-10-16T06:10:25;5.93;;;2.23;;
65033;SDS011;51601;51.356;12.458;2022-10-16T06:14:38;6.63;;;2.63;;
65033;SDS011;51601;51.356;12.458;2022-10-16T06:18:54;5.20;;;2.20;;
65033;SDS011;51601;51.356;12.458;2022-10-16T06:23:08;6.03;;;2.20;;
65033;SDS011;51601;51.356;12.458;2022-10-16T06:27:22;5.90;;;2.20;;
65033;SDS011;51601;51.356;12.458;2022-10-16T06:31:36;7.05;;;2.10;;
65033;SDS011;51601;51.356;12.458;2022-10-16T06:35:51;7.57;;;2.17;;
65033;SDS011;51601;51.356;12.458;2022-10-16T06:40:05;5.27;;;1.90;;
65033;SDS011;51601;51.356;12.458;2022-10-16T06:44:19;5.22;;;2.05;;
65033;SDS011;51601;51.356;12.458;2022-10-16T06:48:33;5.15;;;2.10;;
65033;SDS011;51601;51.356;12.458;2022-10-16T06:52:48;6.40;;;2.00;;
65033;SDS011;51601;51.356;12.458;2022-10-16T06:57:02;5.20;;;1.70;;
65033;SDS011;51601;51.356;12.458;2022-10-16T07:01:17;5.65;;;1.83;;
65033;SDS011;51601;51.356;12.458;2022-10-16T07:05:31;4.60;;;1.80;;
65033;SDS011;51601;51.356;12.458;2022-10-16T07:09:51;5.15;;;1.80;;
65033;SDS011;51601;51.356;12.458;2022-10-16T07:14:05;4.35;;;1.77;;
65033;SDS011;51601;51.356;12.458;2022-10-16T07:18:28;4.18;;;1.48;;
65033;SDS011;51601;51.356;12.458;2022-10-16T07:22:44;3.93;;;1.47;;
65033;SDS011;51601;51.356;12.458;2022-10-16T07:26:59;3.75;;;1.52;;
65033;SDS011;51601;51.356;12.458;2022-10-16T07:31:13;4.10;;;1.70;;
65033;SDS011;51601;51.356;12.458;2022-10-16T07:35:28;4.63;;;2.00;;
65033;SDS011;51601;51.356;12.458;2022-10-16T07:39:42;4.72;;;1.70;;
65033;SDS011;51601;51.356;12.458;2022-10-16T07:43:57;4.32;;;1.65;;
65033;SDS011;51601;51.356;12.458;2022-10-16T07:48:12;3.30;;;1.40;;
65033;SDS011;51601;51.356;12.458;2022-10-16T07:52:26;4.28;;;1.50;;
65033;SDS011;51601;51.356;12.458;2022-10-16T07:56:40;4.55;;;1.63;;
65033;SDS011;51601;51.356;12.458;2022-10-16T08:00:56;3.72;;;1.40;;
65033;SDS011;51601;51.356;12.458;2022-10-16T08:05:10;2.50;;;1.20;;
65033;SDS011;51601;51.356;12.458;2022-10-16T08:09:24;4.00;;;1.40;;
65033;SDS011;51601;51.356;12.458;2022-10-16T08:13:38;3.63;;;1.30;;
65033;SDS011;51601;51.356;12.458;2022-10-16T08:17:56;5.03;;;1.10;;
65033;SDS011;51601;51.356;12.458;2022-10-16T08:22:11;4.90;;;1.02;;
65033;SDS011;51601;51.356;12.458;2022-10-16T08:26:30;2.85;;;1.20;;
65033;SDS011;51601;51.356;12.458;2022-10-16T08:30:44;4.20;;;1.20;;
65033;SDS011;51601;51.356;12.458;2022-10-16T08:34:59;3.63;;;1.10;;
65033;SDS011;51601;51.356;12.458;2022-10-16T08:39:12;3.47;;;1.10;;
65033;SDS011;51601;51.356;12.458;2022-10-16T08:43:33;3.10;;;1.00;;
65033;SDS011;51601;51.356;12.458;2022-10-16T08:47:58;3.73;;;1.10;;
65033;SDS011;51601;51.356;12.458;2022-10-16T08:52:27;3.45;;;1.00;;
65033;SDS011;51601;51.356;12.458;2022-10-16T08:56:43;3.60;;;0.90;;
65033;SDS011;51601;51.356;12.458;2022-10-16T09:00:59;4.60;;;1.27;;
65033;SDS011;51601;51.356;12.458;2022-10-16T09:05:20;2.63;;;1.00;;
65033;SDS011;51601;51.356;12.458;2022-10-16T09:09:58;3.72;;;1.20;;
65033;SDS011;51601;51.356;12.458;2022-10-16T09:14:29;4.57;;;1.23;;
65033;SDS011;51601;51.356;12.458;2022-10-16T09:18:52;2.97;;;1.13;;
65033;SDS011;51601;51.356;12.458;2022-10-16T09:23:14;3.80;;;1.40;;
65033;SDS011;51601;51.356;12.458;2022-10-16T09:27:31;3.60;;;1.38;;
65033;SDS011;51601;51.356;12.458;2022-10-16T09:31:45;5.27;;;1.23;;
65033;SDS011;51601;51.356;12.458;2022-10-16T09:35:59;3.50;;;1.15;;
65033;SDS011;51601;51.356;12.458;2022-10-16T09:40:23;3.25;;;1.10;;
65033;SDS011;51601;51.356;12.458;2022-10-16T09:44:40;4.53;;;2.03;;
65033;SDS011;51601;51.356;12.458;2022-10-16T09:48:54;4.00;;;1.40;;
65033;SDS011;51601;51.356;12.458;2022-10-16T09:53:11;3.33;;;1.10;;
65033;SDS011;51601;51.356;12.458;2022-10-16T09:57:26;4.90;;;1.60;;
65033;SDS011;51601;51.356;12.458;2022-10-16T10:01:43;3.70;;;1.10;;
65033;SDS011;51601;51.356;12.458;2022-10-16T10:05:59;3.15;;;1.25;;
65033;SDS011;51601;51.356;12.458;2022-10-16T10:10:19;3.80;;;1.50;;
65033;SDS011;51601;51.356;12.458;2022-10-16T10:14:35;3.17;;;1.33;;
65033;SDS011;51601;51.356;12.458;2022-10-16T10:18:58;2.75;;;1.20;;
65033;SDS011;51601;51.356;12.458;2022-10-16T10:23:20;5.47;;;1.40;;
65033;SDS011;51601;51.356;12.458;2022-10-16T10:27:37;5.23;;;1.40;;
65033;SDS011;51601;51.356;12.458;2022-10-16T10:31:58;3.97;;;1.50;;
65033;SDS011;51601;51.356;12.458;2022-10-16T10:36:27;5.18;;;1.50;;
65033;SDS011;51601;51.356;12.458;2022-10-16T10:40:45;3.23;;;1.40;;
65033;SDS011;51601;51.356;12.458;2022-10-16T10:45:11;4.28;;;1.40;;
65033;SDS011;51601;51.356;12.458;2022-10-16T10:49:38;4.60;;;1.40;;
65033;SDS011;51601;51.356;12.458;2022-10-16T10:54:05;5.38;;;1.65;;
65033;SDS011;51601;51.356;12.458;2022-10-16T10:58:32;3.70;;;1.50;;
65033;SDS011;51601;51.356;12.458;2022-10-16T11:03:11;5.40;;;1.80;;
65033;SDS011;51601;51.356;12.458;2022-10-16T11:07:41;4.45;;;1.60;;
65033;SDS011;51601;51.356;12.458;2022-10-16T11:12:03;5.63;;;2.03;;
65033;SDS011;51601;51.356;12.458;2022-10-16T11:16:24;4.65;;;1.63;;
65033;SDS011;51601;51.356;12.458;2022-10-16T11:20:42;4.85;;;1.50;;
65033;SDS011;51601;51.356;12.458;2022-10-16T11:25:00;3.80;;;1.40;;
65033;SDS011;51601;51.356;12.458;2022-10-16T11:29:23;4.18;;;1.65;;
65033;SDS011;51601;51.356;12.458;2022-10-16T11:33:41;4.25;;;1.60;;
65033;SDS011;51601;51.356;12.458;2022-10-16T11:37:58;5.10;;;1.80;;
65033;SDS011;51601;51.356;12.458;2022-10-16T11:42:18;5.13;;;1.70;;
65033;SDS011;51601;51.356;12.458;2022-10-16T11:46:37;4.30;;;1.60;;
65033;SDS011;51601;51.356;12.458;2022-10-16T11:51:14;4.97;;;1.88;;
65033;SDS011;51601;51.356;12.458;2022-10-16T11:55:32;4.73;;;1.90;;
65033;SDS011;51601;51.356;12.458;2022-10-16T11:59:56;4.57;;;1.60;;
65033;SDS011;51601;51.356;12.458;2022-10-16T12:04:25;5.38;;;1.90;;
65033;SDS011;51601;51.356;12.458;2022-10-16T12:08:46;4.60;;;1.87;;
65033;SDS011;51601;51.356;12.458;2022-10-16T12:13:00;4.40;;;1.90;;
65033;SDS011;51601;51.356;12.458;2022-10-16T12:17:24;4.05;;;1.70;;
65033;SDS011;51601;51.356;12.458;2022-10-16T12:21:41;5.45;;;1.95;;
65033;SDS011;51601;51.356;12.458;2022-10-16T12:25:55;4.27;;;2.07;;
65033;SDS011;51601;51.356;12.458;2022-10-16T12:30:14;4.72;;;2.10;;
65033;SDS011;51601;51.356;12.458;2022-10-16T12:34:37;4.68;;;1.80;;
65033;SDS011;51601;51.356;12.458;2022-10-16T12:38:56;4.40;;;1.60;;
65033;SDS011;51601;51.356;12.458;2022-10-16T12:43:12;3.92;;;1.80;;
65033;SDS011;51601;51.356;12.458;2022-10-16T12:47:47;4.65;;;1.75;;
65033;SDS011;51601;51.356;12.458;2022-10-16T12:52:03;4.30;;;1.67;;
65033;SDS011;51601;51.356;12.458;2022-10-16T12:56:20;5.05;;;1.88;;
65033;SDS011;51601;51.356;12.458;2022-10-16T13:00:42;3.70;;;1.50;;
65033;SDS011;51601;51.356;12.458;2022-10-16T13:05:02;3.53;;;1.40;;
65033;SDS011;51601;51.356;12.458;2022-10-16T13:09:39;3.80;;;1.50;;
65033;SDS011;51601;51.356;12.458;2022-10-16T13:14:18;3.53;;;1.50;;
65033;SDS011;51601;51.356;12.458;2022-10-16T13:18:51;3.80;;;1.50;;
65033;SDS011;51601;51.356;12.458;2022-10-16T13:23:13;4.07;;;1.50;;
65033;SDS011;51601;51.356;12.458;2022-10-16T13:27:35;3.45;;;1.40;;
65033;SDS011;51601;51.356;12.458;2022-10-16T13:31:55;5.18;;;1.70;;
65033;SDS011;51601;51.356;12.458;2022-10-16T13:36:17;4.23;;;1.50;;
65033;SDS011;51601;51.356;12.458;2022-10-16T13:40:33;3.85;;;1.58;;
65033;SDS011;51601;51.356;12.458;2022-10-16T13:44:47;4.28;;;1.60;;
65033;SDS011;51601;51.356;12.458;2022-10-16T13:49:05;4.85;;;1.85;;
65033;SDS011;51601;51.356;12.458;2022-10-16T13:53:25;3.83;;;1.50;;
65033;SDS011;51601;51.356;12.458;2022-10-16T13:57:40;3.45;;;1.30;;
65033;SDS011;51601;51.356;12.458;2022-10-16T14:01:55;4.05;;;1.40;;
65033;SDS011;51601;51.356;12.458;2022-10-16T14:06:12;4.97;;;1.70;;
65033;SDS011;51601;51.356;12.458;2022-10-16T14:10:30;3.53;;;1.35;;
65033;SDS011;51601;51.356;12.458;2022-10-16T14:14:45;4.35;;;1.65;;
65033;SDS011;51601;51.356;12.458;2022-10-16T14:19:02;3.00;;;1.30;;
65033;SDS011;51601;51.356;12.458;2022-10-16T14:23:21;3.42;;;1.30;;
65033;SDS011;51601;51.356;12.458;2022-10-16T14:27:38;3.03;;;1.40;;
65033;SDS011;51601;51.356;12.458;2022-10-16T14:31:54;4.45;;;1.45;;
65033;SDS011;51601;51.356;12.458;2022-10-16T14:36:11;5.43;;;1.60;;
65033;SDS011;51601;51.356;12.458;2022-10-16T14:40:29;4.30;;;1.50;;
65033;SDS011;51601;51.356;12.458;2022-10-16T14:44:44;4.53;;;1.55;;
65033;SDS011;51601;51.356;12.458;2022-10-16T14:49:00;4.50;;;1.70;;
65033;SDS011;51601;51.356;12.458;2022-10-16T14:53:16;6.35;;;1.85;;
65033;SDS011;51601;51.356;12.458;2022-10-16T14:57:31;4.57;;;1.80;;
65033;SDS011;51601;51.356;12.458;2022-10-16T15:01:48;5.33;;;2.27;;
65033;SDS011;51601;51.356;12.458;2022-10-16T15:06:02;4.80;;;1.85;;
65033;SDS011;51601;51.356;12.458;2022-10-16T15:10:17;5.07;;;1.90;;
65033;SDS011;51601;51.356;12.458;2022-10-16T15:14:32;4.85;;;2.00;;
65033;SDS011;51601;51.356;12.458;2022-10-16T15:18:46;5.03;;;2.10;;
65033;SDS011;51601;51.356;12.458;2022-10-16T15:23:00;5.00;;;2.10;;
65033;SDS011;51601;51.356;12.458;2022-10-16T15:27:15;5.32;;;2.13;;
65033;SDS011;51601;51.356;12.458;2022-10-16T15:31:30;4.90;;;2.00;;
65033;SDS011;51601;51.356;12.458;2022-10-16T15:35:46;6.47;;;2.30;;
65033;SDS011;51601;51.356;12.458;2022-10-16T15:40:00;6.45;;;2.40;;
65033;SDS011;51601;51.356;12.458;2022-10-16T15:44:14;5.10;;;1.90;;
65033;SDS011;51601;51.356;12.458;2022-10-16T15:48:30;5.50;;;2.10;;
65033;SDS011;51601;51.356;12.458;2022-10-16T15:52:44;5.65;;;2.10;;
65033;SDS011;51601;51.356;12.458;2022-10-16T15:56:57;6.35;;;2.03;;
65033;SDS011;51601;51.356;12.458;2022-10-16T16:01:11;6.60;;;2.20;;
65033;SDS011;51601;51.356;12.458;2022-10-16T16:05:26;5.40;;;2.10;;
65033;SDS011;51601;51.356;12.458;2022-10-16T16:09:40;6.32;;;2.35;;
65033;SDS011;51601;51.356;12.458;2022-10-16T16:13:56;5.10;;;2.20;;
65033;SDS011;51601;51.356;12.458;2022-10-16T16:18:10;5.90;;;2.28;;
65033;SDS011;51601;51.356;12.458;2022-10-16T16:22:25;5.15;;;2.40;;
65033;SDS011;51601;51.356;12.458;2022-10-16T16:26:40;6.70;;;2.43;;
65033;SDS011;51601;51.356;12.458;2022-10-16T16:30:55;5.68;;;2.60;;
65033;SDS011;51601;51.356;12.458;2022-10-16T16:35:09;6.00;;;3.03;;
65033;SDS011;51601;51.356;12.458;2022-10-16T16:39:24;5.60;;;2.90;;
65033;SDS011;51601;51.356;12.458;2022-10-16T16:43:38;6.70;;;3.30;;
65033;SDS011;51601;51.356;12.458;2022-10-16T16:47:52;7.03;;;3.50;;
65033;SDS011;51601;51.356;12.458;2022-10-16T16:52:05;7.30;;;3.60;;
65033;SDS011;51601;51.356;12.458;2022-10-16T16:56:21;6.60;;;3.50;;
65033;SDS011;51601;51.356;12.458;2022-10-16T17:00:36;8.18;;;4.00;;
65033;SDS011;51601;51.356;12.458;2022-10-16T17:05:07;7.95;;;3.65;;
65033;SDS011;51601;51.356;12.458;2022-10-16T17:09:22;9.20;;;4.93;;
65033;SDS011;51601;51.356;12.458;2022-10-16T17:13:37;11.07;;;4.80;;
65033;SDS011;51601;51.356;12.458;2022-10-16T17:17:52;9.52;;;4.50;;
65033;SDS011;51601;51.356;12.458;2022-10-16T17:22:05;9.25;;;4.65;;
65033;SDS011;51601;51.356;12.458;2022-10-16T17:26:19;8.87;;;4.80;;
65033;SDS011;51601;51.356;12.458;2022-10-16T17:30:34;9.57;;;4.68;;
65033;SDS011;51601;51.356;12.458;2022-10-16T17:34:49;8.88;;;4.30;;
65033;SDS011;51601;51.356;12.458;2022-10-16T17:39:04;10.83;;;5.70;;
65033;SDS011;51601;51.356;12.458;2022-10-16T17:43:19;8.25;;;4.60;;
65033;SDS011;51601;51.356;12.458;2022-10-16T17:47:34;8.30;;;4.13;;
65033;SDS011;51601;51.356;12.458;2022-10-16T17:51:50;8.20;;;4.90;;
65033;SDS011;51601;51.356;12.458;2022-10-16T17:56:10;8.00;;;4.57;;
65033;SDS011;51601;51.356;12.458;2022-10-16T18:00:25;10.38;;;4.72;;
65033;SDS011;51601;51.356;12.458;2022-10-16T18:04:41;8.05;;;4.60;;
65033;SDS011;51601;51.356;12.458;2022-10-16T18:08:56;9.87;;;4.60;;
65033;SDS011;51601;51.356;12.458;2022-10-16T18:13:11;8.50;;;5.18;;
65033;SDS011;51601;51.356;12.458;2022-10-16T18:17:24;8.25;;;4.80;;
65033;SDS011;51601;51.356;12.458;2022-10-16T18:21:40;9.33;;;4.67;;
65033;SDS011;51601;51.356;12.458;2022-10-16T18:25:54;10.82;;;5.32;;
65033;SDS011;51601;51.356;12.458;2022-10-16T18:30:08;9.15;;;4.50;;
65033;SDS011;51601;51.356;12.458;2022-10-16T18:34:23;10.00;;;4.73;;
65033;SDS011;51601;51.356;12.458;2022-10-16T18:38:39;9.00;;;4.20;;
65033;SDS011;51601;51.356;12.458;2022-10-16T18:42:53;7.40;;;4.38;;
65033;SDS011;51601;51.356;12.458;2022-10-16T18:47:07;9.07;;;4.82;;
65033;SDS011;51601;51.356;12.458;2022-10-16T18:51:24;7.43;;;4.40;;
65033;SDS011;51601;51.356;12.458;2022-10-16T18:55:41;8.60;;;4.38;;
65033;SDS011;51601;51.356;12.458;2022-10-16T18:59:55;7.97;;;3.90;;
65033;SDS011;51601;51.356;12.458;2022-10-16T19:04:10;8.57;;;4.10;;
65033;SDS011;51601;51.356;12.458;2022-10-16T19:08:28;8.93;;;4.30;;
65033;SDS011;51601;51.356;12.458;2022-10-16T19:12:45;8.05;;;3.92;;
65033;SDS011;51601;51.356;12.458;2022-10-16T19:17:02;7.97;;;4.10;;
65033;SDS011;51601;51.356;12.458;2022-10-16T19:21:19;7.40;;;4.18;;
65033;SDS011;51601;51.356;12.458;2022-10-16T19:25:36;7.90;;;4.22;;
65033;SDS011;51601;51.356;12.458;2022-10-16T19:29:55;7.60;;;4.05;;
65033;SDS011;51601;51.356;12.458;2022-10-16T19:34:09;8.87;;;4.70;;
65033;SDS011;51601;51.356;12.458;2022-10-16T19:38:23;8.25;;;4.60;;
65033;SDS011;51601;51.356;12.458;2022-10-16T19:42:37;8.55;;;4.63;;
65033;SDS011;51601;51.356;12.458;2022-10-16T19:46:56;8.50;;;4.37;;
65033;SDS011;51601;51.356;12.458;2022-10-16T19:51:11;8.65;;;4.43;;
65033;SDS011;51601;51.356;12.458;2022-10-16T19:55:26;7.10;;;4.07;;
65033;SDS011;51601;51.356;12.458;2022-10-16T19:59:43;11.43;;;4.43;;
65033;SDS011;51601;51.356;12.458;2022-10-16T20:03:58;7.63;;;4.22;;
65033;SDS011;51601;51.356;12.458;2022-10-16T20:08:12;8.32;;;4.15;;
65033;SDS011;51601;51.356;12.458;2022-10-16T20:12:26;8.73;;;4.97;;
65033;SDS011;51601;51.356;12.458;2022-10-16T20:16:39;9.23;;;5.20;;
65033;SDS011;51601;51.356;12.458;2022-10-16T20:20:55;11.13;;;4.65;;
65033;SDS011;51601;51.356;12.458;2022-10-16T20:25:10;11.27;;;4.55;;
65033;SDS011;51601;51.356;12.458;2022-10-16T20:29:30;12.93;;;5.53;;
65033;SDS011;51601;51.356;12.458;2022-10-16T20:33:43;13.18;;;6.28;;
65033;SDS011;51601;51.356;12.458;2022-10-16T20:37:59;10.82;;;6.00;;
65033;SDS011;51601;51.356;12.458;2022-10-16T20:42:13;8.33;;;5.00;;
65033;SDS011;51601;51.356;12.458;2022-10-16T20:46:27;8.10;;;4.75;;
65033;SDS011;51601;51.356;12.458;2022-10-16T20:50:42;10.30;;;4.63;;
65033;SDS011;51601;51.356;12.458;2022-10-16T20:54:57;9.45;;;5.57;;
65033;SDS011;51601;51.356;12.458;2022-10-16T20:59:11;8.73;;;4.93;;
65033;SDS011;51601;51.356;12.458;2022-10-16T21:03:29;12.32;;;7.10;;
65033;SDS011;51601;51.356;12.458;2022-10-16T21:07:44;10.15;;;5.70;;
65033;SDS011;51601;51.356;12.458;2022-10-16T21:12:00;9.90;;;6.03;;
65033;SDS011;51601;51.356;12.458;2022-10-16T21:16:14;8.13;;;5.00;;
65033;SDS011;51601;51.356;12.458;2022-10-16T21:20:28;10.48;;;5.60;;
65033;SDS011;51601;51.356;12.458;2022-10-16T21:24:42;8.80;;;5.47;;
65033;SDS011;51601;51.356;12.458;2022-10-16T21:28:57;12.15;;;7.82;;
65033;SDS011;51601;51.356;12.458;2022-10-16T21:33:12;9.25;;;6.20;;
65033;SDS011;51601;51.356;12.458;2022-10-16T21:37:26;9.48;;;4.85;;
65033;SDS011;51601;51.356;12.458;2022-10-16T21:41:40;12.90;;;6.33;;
65033;SDS011;51601;51.356;12.458;2022-10-16T21:45:57;11.32;;;5.47;;
65033;SDS011;51601;51.356;12.458;2022-10-16T21:50:10;8.85;;;4.93;;
65033;SDS011;51601;51.356;12.458;2022-10-16T21:54:24;10.03;;;4.83;;
65033;SDS011;51601;51.356;12.458;2022-10-16T21:58:38;8.07;;;4.50;;
65033;SDS011;51601;51.356;12.458;2022-10-16T22:02:54;9.38;;;5.20;;
65033;SDS011;51601;51.356;12.458;2022-10-16T22:07:09;8.77;;;4.60;;
65033;SDS011;51601;51.356;12.458;2022-10-16T22:11:24;8.75;;;4.50;;
65033;SDS011;51601;51.356;12.458;2022-10-16T22:15:46;10.02;;;4.80;;
65033;SDS011;51601;51.356;12.458;2022-10-16T22:20:04;9.35;;;4.93;;
65033;SDS011;51601;51.356;12.458;2022-10-16T22:24:19;9.37;;;4.67;;
65033;SDS011;51601;51.356;12.458;2022-10-16T22:28:33;9.50;;;5.00;;
65033;SDS011;51601;51.356;12.458;2022-10-16T22:32:48;8.43;;;4.30;;
65033;SDS011;51601;51.356;12.458;2022-10-16T22:37:03;7.30;;;4.40;;
65033;SDS011;51601;51.356;12.458;2022-10-16T22:41:17;11.43;;;4.45;;
65033;SDS011;51601;51.356;12.458;2022-10-16T22:45:31;8.77;;;4.35;;
65033;SDS011;51601;51.356;12.458;2022-10-16T22:49:46;7.77;;;4.50;;
65033;SDS011;51601;51.356;12.458;2022-10-16T22:54:01;10.10;;;4.35;;
65033;SDS011;51601;51.356;12.458;2022-10-16T22:58:15;8.18;;;4.45;;
65033;SDS011;51601;51.356;12.458;2022-10-16T23:02:29;11.48;;;5.13;;
65033;SDS011;51601;51.356;12.458;2022-10-16T23:06:43;8.10;;;4.40;;
65033;SDS011;51601;51.356;12.458;2022-10-16T23:10:58;9.13;;;4.70;;
65033;SDS011;51601;51.356;12.458;2022-10-16T23:15:13;8.35;;;4.75;;
65033;SDS011;51601;51.356;12.458;2022-10-16T23:19:27;10.03;;;5.00;;
65033;SDS011;51601;51.356;12.458;2022-10-16T23:23:41;10.30;;;5.25;;
65033;SDS011;51601;51.356;12.458;2022-10-16T23:27:56;9.63;;;5.43;;
65033;SDS011;51601;51.356;12.458;2022-10-16T23:32:10;10.60;;;5.40;;
65033;SDS011;51601;51.356;12.458;2022-10-16T23:36:24;11.07;;;5.15;;
65033;SDS011;51601;51.356;12.458;2022-10-16T23:40:38;8.65;;;5.32;;
65033;SDS011;51601;51.356;12.458;2022-10-16T23:44:53;10.35;;;5.85;;
65033;SDS011;51601;51.356;12.458;2022-10-16T23:49:09;12.07;;;5.77;;
65033;SDS011;51601;51.356;12.458;2022-10-16T23:53:23;11.35;;;6.15;;
65033;SDS011;51601;51.356;12.458;2022-10-16T23:57:37;9.02;;;5.53;;
